Europa — C6QK8 — position and weather

sailwx.info

Track history (hours):
 
Tides and Currents Weather Stations Pressure Air Temp Water Temp Dewpoint Dewpoint Depression Visibility Wind Speed Wind Dir Waves Ship Positions

Europa

Operator: Hapag-Lloyd Container Line

Last reported at 2018-Oct-23 19:17 UTC. Time now 2018-Nov-13 07:15 UTC.
Position N 37°20' E 023°52'.
Warning: this ship's position is 20 days out of date.

Length 199 m; draft 6.2 m.

Type: Passenger vessel. MMSI: 308007000.

Date/timePositionNaut miles runAvg speedWind from/ knotsBaromVisibWave heightAir tempDewpointWater temp
2018-Oct-23 19:17N 37°20' E 023°52'519.3
2018-Oct-23 19:00N 37°25' E 023°50'1019.6
2018-Oct-23 18:30N 37°34' E 023°46'919.5
2018-Oct-23 18:03N 37°42' E 023°41'119.6
2018-Oct-23 18:00N 37°43' E 023°40'1019.3
2018-Oct-23 17:30N 37°52' E 023°36'510.4
2018-Oct-23 17:02N 37°56' E 023°38'0 1.8
2018-Oct-23 16:59N 37°56' E 023°38'0 0.0
2018-Oct-23 16:29N 37°56' E 023°38'0 0.0
2018-Oct-23 16:02N 37°56' E 023°38'0 0.0
2018-Oct-23 15:59N 37°56' E 023°38'0 0.0
2018-Oct-23 15:29N 37°56' E 023°38'0 0.0
2018-Oct-23 15:02N 37°56' E 023°38'0 0.0
2018-Oct-23 14:59N 37°56' E 023°38'0 0.0
2018-Oct-23 13:59N 37°56' E 023°38'0 0.0
2018-Oct-23 13:29N 37°56' E 023°38'0 0.0
2018-Oct-23 13:02N 37°56' E 023°38'0 0.0
2018-Oct-23 12:59N 37°56' E 023°38'0 0.0
2018-Oct-23 12:29N 37°56' E 023°38'0 0.0
2018-Oct-23 12:02N 37°56' E 023°38'0 0.0
2018-Oct-23 11:59N 37°56' E 023°38'0 0.0
2018-Oct-23 11:29N 37°56' E 023°38'0 0.0
2018-Oct-23 11:02N 37°56' E 023°38'0 0.0
2018-Oct-23 10:59N 37°56' E 023°38'0 0.0
2018-Oct-23 10:26N 37°56' E 023°38'0 0.0
2018-Oct-23 10:02N 37°56' E 023°38'0 0.0
2018-Oct-23 09:59N 37°56' E 023°38'0 0.0
2018-Oct-23 09:29N 37°56' E 023°38'0 0.0
2018-Oct-23 09:02N 37°56' E 023°38'0 0.0
2018-Oct-23 08:59N 37°56' E 023°38'0 0.0
2018-Oct-23 08:29N 37°56' E 023°38'0 0.0
2018-Oct-23 08:02N 37°56' E 023°38'0 0.0
2018-Oct-23 07:59N 37°56' E 023°38'0 0.0
2018-Oct-23 07:29N 37°56' E 023°38'0 0.0
2018-Oct-23 07:02N 37°56' E 023°38'0 0.0
2018-Oct-23 06:59N 37°56' E 023°38'0 0.0
2018-Oct-23 06:29N 37°56' E 023°38'0 0.0
2018-Oct-23 06:02N 37°56' E 023°38'0 0.0
2018-Oct-23 05:59N 37°56' E 023°38'0 0.0
2018-Oct-23 05:29N 37°56' E 023°38'0 0.0
2018-Oct-23 05:02N 37°56' E 023°38'0 0.0
2018-Oct-23 04:59N 37°56' E 023°38'0 0.0
2018-Oct-23 04:29N 37°56' E 023°38'0 0.0
2018-Oct-23 04:02N 37°56' E 023°38'0 0.0
2018-Oct-23 04:00N 37°56' E 023°38'0 0.1
2018-Oct-23 03:31N 37°56' E 023°38'2 3.9
2018-Oct-23 03:03N 37°55' E 023°36'0 2.6
2018-Oct-23 03:00N 37°55' E 023°37'4 8.4
2018-Oct-23 02:30N 37°51' E 023°39'510.6
2018-Oct-23 02:03N 37°47' E 023°41'110.4
2018-Oct-23 02:00N 37°46' E 023°42'510.4
2018-Oct-23 01:30N 37°42' E 023°44'410.1
2018-Oct-23 01:04N 37°38' E 023°48'1 9.9
2018-Oct-23 01:00N 37°38' E 023°48'510.2
2018-Oct-23 00:30N 37°34' E 023°53'510.2
2018-Oct-23 00:03N 37°31' E 023°56'110.3
2018-Oct-23 00:00N 37°30' E 023°57'510.4
2018-Oct-22 23:30N 37°26' E 024°01'610.3
2018-Oct-22 22:58N 37°22' E 024°06'62 2.7
2018-Oct-22 00:17N 36°59' E 025°18'2 9.9
2018-Oct-22 00:03N 37°01' E 025°18'110.3
2018-Oct-22 00:00N 37°02' E 025°18'510.7
2018-Oct-21 23:30N 37°07' E 025°19'4 9.6
2018-Oct-21 23:03N 37°12' E 025°19'0 8.9
2018-Oct-21 23:00N 37°12' E 025°19'4 8.9
2018-Oct-21 22:30N 37°16' E 025°18'510.0
2018-Oct-21 22:03N 37°21' E 025°17'110.9
2018-Oct-21 22:00N 37°21' E 025°17'6 6.0
2018-Oct-21 21:00N 37°27' E 025°19'0 0.2
2018-Oct-21 20:29N 37°27' E 025°19'0 0.0
2018-Oct-21 20:02N 37°27' E 025°19'0 0.2
2018-Oct-21 19:59N 37°27' E 025°19'0 0.0
2018-Oct-21 19:29N 37°27' E 025°19'0 0.0
2018-Oct-21 19:02N 37°27' E 025°19'0 0.0
2018-Oct-21 18:59N 37°27' E 025°19'0 0.0
2018-Oct-21 18:29N 37°27' E 025°19'0 0.0
2018-Oct-21 18:02N 37°27' E 025°19'0 0.2
2018-Oct-21 17:59N 37°27' E 025°19'0 0.0
2018-Oct-21 17:29N 37°27' E 025°19'0 0.0
2018-Oct-21 17:02N 37°27' E 025°19'0 0.2
2018-Oct-21 16:59N 37°27' E 025°19'0 0.0
2018-Oct-21 16:29N 37°27' E 025°19'0 0.0
2018-Oct-21 16:02N 37°27' E 025°19'0 0.0
2018-Oct-21 15:59N 37°27' E 025°19'0 0.0
2018-Oct-21 15:29N 37°27' E 025°19'0 0.0
2018-Oct-21 15:02N 37°27' E 025°19'0 0.1
2018-Oct-21 14:59N 37°27' E 025°19'0 0.0
2018-Oct-21 14:26N 37°27' E 025°19'0 0.1
2018-Oct-21 13:59N 37°27' E 025°19'0 0.0
2018-Oct-21 13:29N 37°27' E 025°19'0 0.0
2018-Oct-21 13:02N 37°27' E 025°19'0 0.1
2018-Oct-21 12:56N 37°27' E 025°19'0 0.0
2018-Oct-21 12:29N 37°27' E 025°19'0 0.0
2018-Oct-21 12:02N 37°27' E 025°19'0 0.1
2018-Oct-21 11:59N 37°27' E 025°19'0 0.0
2018-Oct-21 11:29N 37°27' E 025°19'0 0.0
2018-Oct-21 11:02N 37°27' E 025°19'0 0.0
2018-Oct-21 10:59N 37°27' E 025°19'0 0.0
2018-Oct-21 10:29N 37°27' E 025°19'0 0.0
2018-Oct-21 10:02N 37°27' E 025°19'0 0.1
2018-Oct-21 09:59N 37°27' E 025°19'0 0.0
2018-Oct-21 09:29N 37°27' E 025°19'0 0.0
2018-Oct-21 09:02N 37°27' E 025°19'0 0.0
2018-Oct-21 08:59N 37°27' E 025°19'0 0.0
2018-Oct-21 08:29N 37°27' E 025°19'0 0.0
2018-Oct-21 08:02N 37°27' E 025°19'0 0.2
2018-Oct-21 07:59N 37°27' E 025°19'0 0.0
2018-Oct-21 07:29N 37°27' E 025°19'0 0.0
2018-Oct-21 07:02N 37°27' E 025°19'0 0.1
2018-Oct-21 06:59N 37°27' E 025°19'0 0.0
2018-Oct-21 06:29N 37°27' E 025°19'0 0.0
2018-Oct-21 06:02N 37°27' E 025°19'0 0.2
2018-Oct-21 05:59N 37°27' E 025°19'0 0.0
2018-Oct-21 05:29N 37°27' E 025°19'0 0.0
2018-Oct-21 05:02N 37°27' E 025°19'0 0.2
2018-Oct-21 04:59N 37°27' E 025°19'0 0.1
2018-Oct-21 04:26N 37°27' E 025°19'0 0.0
2018-Oct-21 04:02N 37°27' E 025°19'0 0.8
2018-Oct-21 03:59N 37°27' E 025°19'0 0.6
2018-Oct-21 03:31N 37°27' E 025°19'3 7.4
2018-Oct-21 03:03N 37°27' E 025°15'111.8
2018-Oct-21 03:00N 37°27' E 025°14'510.2
2018-Oct-21 02:30N 37°26' E 025°08'511.0
2018-Oct-21 02:03N 37°23' E 025°03'111.1
2018-Oct-21 02:00N 37°23' E 025°02'611.3
2018-Oct-21 01:30N 37°19' E 024°57'511.0
2018-Oct-21 01:03N 37°16' E 024°52'110.4
2018-Oct-21 01:00N 37°16' E 024°52'  
2018-Oct-16 02:10N 37°53' E 015°52'114.0
2018-Oct-16 02:03N 37°53' E 015°50'114.0
2018-Oct-16 02:00N 37°53' E 015°49'713.8
2018-Oct-16 01:30N 37°54' E 015°41'613.5
2018-Oct-16 01:03N 37°58' E 015°35'113.7
2018-Oct-16 01:00N 37°58' E 015°34'713.1
2018-Oct-16 00:30N 38°05' E 015°34'511.3
2018-Oct-16 00:03N 38°10' E 015°35'114.9
2018-Oct-16 00:00N 38°10' E 015°35'714.2
2018-Oct-15 23:30N 38°16' E 015°40'613.5
2018-Oct-15 23:03N 38°20' E 015°35'118.0
2018-Oct-15 23:01N 38°21' E 015°34'917.5
2018-Oct-15 22:30N 38°21' E 015°23'817.9
2018-Oct-15 22:03N 38°20' E 015°13'117.7
2018-Oct-15 22:01N 38°20' E 015°12'917.7
2018-Oct-15 21:30N 38°18' E 015°00'817.8
2018-Oct-15 21:04N 38°17' E 014°50'117.7
2018-Oct-15 21:00N 38°17' E 014°49'917.4
2018-Oct-15 20:30N 38°16' E 014°38'1317.6
2018-Oct-15 19:47N 38°14' E 014°22'517.7
2018-Oct-15 19:30N 38°14' E 014°16'817.7
2018-Oct-15 19:04N 38°13' E 014°06'117.8
2018-Oct-15 19:00N 38°13' E 014°05'917.7
2018-Oct-15 18:31N 38°12' E 013°54'817.7
2018-Oct-15 18:04N 38°11' E 013°43'117.6
2018-Oct-15 18:01N 38°11' E 013°42'917.5
2018-Oct-15 17:31N 38°09' E 013°31'715.7
2018-Oct-15 17:03N 38°07' E 013°23'0 5.5
2018-Oct-15 17:00N 38°07' E 013°23'0 1.0
2018-Oct-15 16:30N 38°08' E 013°22'0 0.0
2018-Oct-15 16:01N 38°08' E 013°22'0 0.0
2018-Oct-15 15:58N 38°08' E 013°22'0 0.0
2018-Oct-15 15:28N 38°08' E 013°22'0 0.0
2018-Oct-15 15:01N 38°08' E 013°22'0 0.0
2018-Oct-15 14:58N 38°08' E 013°22'0 0.0
2018-Oct-15 14:28N 38°08' E 013°22'0 0.0
2018-Oct-15 13:58N 38°08' E 013°22'0 0.0
2018-Oct-15 13:28N 38°08' E 013°22'0 0.0
2018-Oct-15 13:01N 38°08' E 013°22'0 0.0
2018-Oct-15 12:58N 38°08' E 013°22'0 0.0
2018-Oct-15 12:28N 38°08' E 013°22'0 0.0
2018-Oct-15 12:01N 38°08' E 013°22'0 0.0
2018-Oct-15 11:58N 38°08' E 013°22'0 0.0
2018-Oct-15 11:28N 38°08' E 013°22'0 0.0
2018-Oct-15 11:03N 38°08' E 013°22'0 0.0
2018-Oct-15 11:00N 38°08' E 013°22'1 1.8
2018-Oct-15 10:31N 38°07' E 013°23'511.6
2018-Oct-15 10:03N 38°12' E 013°24'114.5
2018-Oct-15 10:01N 38°13' E 013°23'714.3
2018-Oct-15 09:30N 38°20' E 013°20'714.4
2018-Oct-15 09:03N 38°25' E 013°15'114.3
2018-Oct-15 09:00N 38°26' E 013°15'714.2
2018-Oct-15 08:31N 38°32' E 013°10'614.2
2018-Oct-15 08:03N 38°37' E 013°05'114.3
2018-Oct-15 08:01N 38°38' E 013°05'714.3
2018-Oct-15 07:30N 38°44' E 012°60'20014.8
2018-Oct-14 18:00N 41°31' E 010°38'918.0
2018-Oct-14 17:30N 41°39' E 010°31'817.7
2018-Oct-14 17:03N 41°45' E 010°25'117.6
2018-Oct-14 17:00N 41°46' E 010°25'917.7
2018-Oct-14 16:30N 41°53' E 010°18'817.8
2018-Oct-14 16:03N 42°00' E 010°12'117.8
2018-Oct-14 16:00N 42°01' E 010°12'917.7
2018-Oct-14 15:30N 42°08' E 010°05'817.5
2018-Oct-14 15:03N 42°15' E 009°59'117.5
2018-Oct-14 15:00N 42°16' E 009°59'1017.9
2018-Oct-14 14:27N 42°24' E 009°51'817.8
2018-Oct-14 14:00N 42°31' E 009°46'917.8
2018-Oct-14 13:30N 42°37' E 009°37'815.3
2018-Oct-14 12:57N 42°42' E 009°28'0 0.1
2018-Oct-14 05:56N 42°42' E 009°27'0 0.0
2018-Oct-14 05:19N 42°42' E 009°27'0 0.0
2018-Oct-14 04:44N 42°42' E 009°27'0 0.0
2018-Oct-14 04:30N 42°42' E 009°27'0 0.3
2018-Oct-14 04:03N 42°42' E 009°27'0 2.5
2018-Oct-14 04:01N 42°42' E 009°27'7 8.5
2018-Oct-14 03:12N 42°41' E 009°37'2 9.5
2018-Oct-14 03:02N 42°41' E 009°39'0 9.5
2018-Oct-14 03:00N 42°41' E 009°39'510.6
2018-Oct-14 02:30N 42°39' E 009°46'510.9
2018-Oct-14 02:01N 42°35' E 009°51'010.6
2018-Oct-14 02:00N 42°35' E 009°51'510.6
2018-Oct-14 01:30N 42°32' E 009°57'510.4
2018-Oct-14 01:03N 42°30' E 010°03'110.6
2018-Oct-14 01:00N 42°30' E 010°03'510.6
2018-Oct-14 00:30N 42°28' E 010°10'510.9
2018-Oct-14 00:02N 42°27' E 010°17'011.0
2018-Oct-14 00:00N 42°27' E 010°17'510.6
2018-Oct-13 23:30N 42°25' E 010°24'410.3
2018-Oct-13 23:03N 42°23' E 010°30'110.3
2018-Oct-13 22:58N 42°22' E 010°31'510.2
2018-Oct-13 22:30N 42°20' E 010°36'4 9.8
2018-Oct-13 22:03N 42°18' E 010°41'0 9.5
2018-Oct-13 22:00N 42°18' E 010°42'5 9.8
2018-Oct-13 21:30N 42°16' E 010°48'510.4
2018-Oct-13 21:01N 42°13' E 010°54'010.6
2018-Oct-13 20:59N 42°13' E 010°54'610.8
2018-Oct-13 20:25N 42°10' E 011°01'610.9
2018-Oct-13 19:52N 42°09' E 011°09'  
Track history (hours):
 
Tides and Currents Weather Stations Pressure Air Temp Water Temp Dewpoint Dewpoint Depression Visibility Wind Speed Wind Dir Waves Ship Positions

Europa

Operator: Hapag-Lloyd Container Line

Last reported at 2018-Oct-23 19:17 UTC. Time now 2018-Nov-13 07:15 UTC.
Position N 37°20' E 023°52'.
Warning: this ship's position is 20 days out of date.

Length 199 m; draft 6.2 m.

Type: Passenger vessel. MMSI: 308007000.

Date/timePositionNaut miles runAvg speedWind from/ knotsBaromVisibWave heightAir tempDewpointWater temp
2018-Oct-23 19:17N 37°20' E 023°52'519.3
2018-Oct-23 19:00N 37°25' E 023°50'1019.6
2018-Oct-23 18:30N 37°34' E 023°46'919.5
2018-Oct-23 18:03N 37°42' E 023°41'119.6
2018-Oct-23 18:00N 37°43' E 023°40'1019.3
2018-Oct-23 17:30N 37°52' E 023°36'510.4
2018-Oct-23 17:02N 37°56' E 023°38'0 1.8
2018-Oct-23 16:59N 37°56' E 023°38'0 0.0
2018-Oct-23 16:29N 37°56' E 023°38'0 0.0
2018-Oct-23 16:02N 37°56' E 023°38'0 0.0
2018-Oct-23 15:59N 37°56' E 023°38'0 0.0
2018-Oct-23 15:29N 37°56' E 023°38'0 0.0
2018-Oct-23 15:02N 37°56' E 023°38'0 0.0
2018-Oct-23 14:59N 37°56' E 023°38'0 0.0
2018-Oct-23 13:59N 37°56' E 023°38'0 0.0
2018-Oct-23 13:29N 37°56' E 023°38'0 0.0
2018-Oct-23 13:02N 37°56' E 023°38'0 0.0
2018-Oct-23 12:59N 37°56' E 023°38'0 0.0
2018-Oct-23 12:29N 37°56' E 023°38'0 0.0
2018-Oct-23 12:02N 37°56' E 023°38'0 0.0
2018-Oct-23 11:59N 37°56' E 023°38'0 0.0
2018-Oct-23 11:29N 37°56' E 023°38'0 0.0
2018-Oct-23 11:02N 37°56' E 023°38'0 0.0
2018-Oct-23 10:59N 37°56' E 023°38'0 0.0
2018-Oct-23 10:26N 37°56' E 023°38'0 0.0
2018-Oct-23 10:02N 37°56' E 023°38'0 0.0
2018-Oct-23 09:59N 37°56' E 023°38'0 0.0
2018-Oct-23 09:29N 37°56' E 023°38'0 0.0
2018-Oct-23 09:02N 37°56' E 023°38'0 0.0
2018-Oct-23 08:59N 37°56' E 023°38'0 0.0
2018-Oct-23 08:29N 37°56' E 023°38'0 0.0
2018-Oct-23 08:02N 37°56' E 023°38'0 0.0
2018-Oct-23 07:59N 37°56' E 023°38'0 0.0
2018-Oct-23 07:29N 37°56' E 023°38'0 0.0
2018-Oct-23 07:02N 37°56' E 023°38'0 0.0
2018-Oct-23 06:59N 37°56' E 023°38'0 0.0
2018-Oct-23 06:29N 37°56' E 023°38'0 0.0
2018-Oct-23 06:02N 37°56' E 023°38'0 0.0
2018-Oct-23 05:59N 37°56' E 023°38'0 0.0
2018-Oct-23 05:29N 37°56' E 023°38'0 0.0
2018-Oct-23 05:02N 37°56' E 023°38'0 0.0
2018-Oct-23 04:59N 37°56' E 023°38'0 0.0
2018-Oct-23 04:29N 37°56' E 023°38'0 0.0
2018-Oct-23 04:02N 37°56' E 023°38'0 0.0
2018-Oct-23 04:00N 37°56' E 023°38'0 0.1
2018-Oct-23 03:31N 37°56' E 023°38'2 3.9
2018-Oct-23 03:03N 37°55' E 023°36'0 2.6
2018-Oct-23 03:00N 37°55' E 023°37'4 8.4
2018-Oct-23 02:30N 37°51' E 023°39'510.6
2018-Oct-23 02:03N 37°47' E 023°41'110.4
2018-Oct-23 02:00N 37°46' E 023°42'510.4
2018-Oct-23 01:30N 37°42' E 023°44'410.1
2018-Oct-23 01:04N 37°38' E 023°48'1 9.9
2018-Oct-23 01:00N 37°38' E 023°48'510.2
2018-Oct-23 00:30N 37°34' E 023°53'510.2
2018-Oct-23 00:03N 37°31' E 023°56'110.3
2018-Oct-23 00:00N 37°30' E 023°57'510.4
2018-Oct-22 23:30N 37°26' E 024°01'610.3
2018-Oct-22 22:58N 37°22' E 024°06'62 2.7
2018-Oct-22 00:17N 36°59' E 025°18'2 9.9
2018-Oct-22 00:03N 37°01' E 025°18'110.3
2018-Oct-22 00:00N 37°02' E 025°18'510.7
2018-Oct-21 23:30N 37°07' E 025°19'4 9.6
2018-Oct-21 23:03N 37°12' E 025°19'0 8.9
2018-Oct-21 23:00N 37°12' E 025°19'4 8.9
2018-Oct-21 22:30N 37°16' E 025°18'510.0
2018-Oct-21 22:03N 37°21' E 025°17'110.9
2018-Oct-21 22:00N 37°21' E 025°17'6 6.0
2018-Oct-21 21:00N 37°27' E 025°19'0 0.2
2018-Oct-21 20:29N 37°27' E 025°19'0 0.0
2018-Oct-21 20:02N 37°27' E 025°19'0 0.2
2018-Oct-21 19:59N 37°27' E 025°19'0 0.0
2018-Oct-21 19:29N 37°27' E 025°19'0 0.0
2018-Oct-21 19:02N 37°27' E 025°19'0 0.0
2018-Oct-21 18:59N 37°27' E 025°19'0 0.0
2018-Oct-21 18:29N 37°27' E 025°19'0 0.0
2018-Oct-21 18:02N 37°27' E 025°19'0 0.2
2018-Oct-21 17:59N 37°27' E 025°19'0 0.0
2018-Oct-21 17:29N 37°27' E 025°19'0 0.0
2018-Oct-21 17:02N 37°27' E 025°19'0 0.2
2018-Oct-21 16:59N 37°27' E 025°19'0 0.0
2018-Oct-21 16:29N 37°27' E 025°19'0 0.0
2018-Oct-21 16:02N 37°27' E 025°19'0 0.0
2018-Oct-21 15:59N 37°27' E 025°19'0 0.0
2018-Oct-21 15:29N 37°27' E 025°19'0 0.0
2018-Oct-21 15:02N 37°27' E 025°19'0 0.1
2018-Oct-21 14:59N 37°27' E 025°19'0 0.0
2018-Oct-21 14:26N 37°27' E 025°19'0 0.1
2018-Oct-21 13:59N 37°27' E 025°19'0 0.0
2018-Oct-21 13:29N 37°27' E 025°19'0 0.0
2018-Oct-21 13:02N 37°27' E 025°19'0 0.1
2018-Oct-21 12:56N 37°27' E 025°19'0 0.0
2018-Oct-21 12:29N 37°27' E 025°19'0 0.0
2018-Oct-21 12:02N 37°27' E 025°19'0 0.1
2018-Oct-21 11:59N 37°27' E 025°19'0 0.0
2018-Oct-21 11:29N 37°27' E 025°19'0 0.0
2018-Oct-21 11:02N 37°27' E 025°19'0 0.0
2018-Oct-21 10:59N 37°27' E 025°19'0 0.0
2018-Oct-21 10:29N 37°27' E 025°19'0 0.0
2018-Oct-21 10:02N 37°27' E 025°19'0 0.1
2018-Oct-21 09:59N 37°27' E 025°19'0 0.0
2018-Oct-21 09:29N 37°27' E 025°19'0 0.0
2018-Oct-21 09:02N 37°27' E 025°19'0 0.0
2018-Oct-21 08:59N 37°27' E 025°19'0 0.0
2018-Oct-21 08:29N 37°27' E 025°19'0 0.0
2018-Oct-21 08:02N 37°27' E 025°19'0 0.2
2018-Oct-21 07:59N 37°27' E 025°19'0 0.0
2018-Oct-21 07:29N 37°27' E 025°19'0 0.0
2018-Oct-21 07:02N 37°27' E 025°19'0 0.1
2018-Oct-21 06:59N 37°27' E 025°19'0 0.0
2018-Oct-21 06:29N 37°27' E 025°19'0 0.0
2018-Oct-21 06:02N 37°27' E 025°19'0 0.2
2018-Oct-21 05:59N 37°27' E 025°19'0 0.0
2018-Oct-21 05:29N 37°27' E 025°19'0 0.0
2018-Oct-21 05:02N 37°27' E 025°19'0 0.2
2018-Oct-21 04:59N 37°27' E 025°19'0 0.1
2018-Oct-21 04:26N 37°27' E 025°19'0 0.0
2018-Oct-21 04:02N 37°27' E 025°19'0 0.8
2018-Oct-21 03:59N 37°27' E 025°19'0 0.6
2018-Oct-21 03:31N 37°27' E 025°19'3 7.4
2018-Oct-21 03:03N 37°27' E 025°15'111.8
2018-Oct-21 03:00N 37°27' E 025°14'510.2
2018-Oct-21 02:30N 37°26' E 025°08'511.0
2018-Oct-21 02:03N 37°23' E 025°03'111.1
2018-Oct-21 02:00N 37°23' E 025°02'611.3
2018-Oct-21 01:30N 37°19' E 024°57'511.0
2018-Oct-21 01:03N 37°16' E 024°52'110.4
2018-Oct-21 01:00N 37°16' E 024°52'  
2018-Oct-16 02:10N 37°53' E 015°52'114.0
2018-Oct-16 02:03N 37°53' E 015°50'114.0
2018-Oct-16 02:00N 37°53' E 015°49'713.8
2018-Oct-16 01:30N 37°54' E 015°41'613.5
2018-Oct-16 01:03N 37°58' E 015°35'113.7
2018-Oct-16 01:00N 37°58' E 015°34'713.1
2018-Oct-16 00:30N 38°05' E 015°34'511.3
2018-Oct-16 00:03N 38°10' E 015°35'114.9
2018-Oct-16 00:00N 38°10' E 015°35'714.2
2018-Oct-15 23:30N 38°16' E 015°40'613.5
2018-Oct-15 23:03N 38°20' E 015°35'118.0
2018-Oct-15 23:01N 38°21' E 015°34'917.5
2018-Oct-15 22:30N 38°21' E 015°23'817.9
2018-Oct-15 22:03N 38°20' E 015°13'117.7
2018-Oct-15 22:01N 38°20' E 015°12'917.7
2018-Oct-15 21:30N 38°18' E 015°00'817.8
2018-Oct-15 21:04N 38°17' E 014°50'117.7
2018-Oct-15 21:00N 38°17' E 014°49'917.4
2018-Oct-15 20:30N 38°16' E 014°38'1317.6
2018-Oct-15 19:47N 38°14' E 014°22'517.7
2018-Oct-15 19:30N 38°14' E 014°16'817.7
2018-Oct-15 19:04N 38°13' E 014°06'117.8
2018-Oct-15 19:00N 38°13' E 014°05'917.7
2018-Oct-15 18:31N 38°12' E 013°54'817.7
2018-Oct-15 18:04N 38°11' E 013°43'117.6
2018-Oct-15 18:01N 38°11' E 013°42'917.5
2018-Oct-15 17:31N 38°09' E 013°31'715.7
2018-Oct-15 17:03N 38°07' E 013°23'0 5.5
2018-Oct-15 17:00N 38°07' E 013°23'0 1.0
2018-Oct-15 16:30N 38°08' E 013°22'0 0.0
2018-Oct-15 16:01N 38°08' E 013°22'0 0.0
2018-Oct-15 15:58N 38°08' E 013°22'0 0.0
2018-Oct-15 15:28N 38°08' E 013°22'0 0.0
2018-Oct-15 15:01N 38°08' E 013°22'0 0.0
2018-Oct-15 14:58N 38°08' E 013°22'0 0.0
2018-Oct-15 14:28N 38°08' E 013°22'0 0.0
2018-Oct-15 13:58N 38°08' E 013°22'0 0.0
2018-Oct-15 13:28N 38°08' E 013°22'0 0.0
2018-Oct-15 13:01N 38°08' E 013°22'0 0.0
2018-Oct-15 12:58N 38°08' E 013°22'0 0.0
2018-Oct-15 12:28N 38°08' E 013°22'0 0.0
2018-Oct-15 12:01N 38°08' E 013°22'0 0.0
2018-Oct-15 11:58N 38°08' E 013°22'0 0.0
2018-Oct-15 11:28N 38°08' E 013°22'0 0.0
2018-Oct-15 11:03N 38°08' E 013°22'0 0.0
2018-Oct-15 11:00N 38°08' E 013°22'1 1.8
2018-Oct-15 10:31N 38°07' E 013°23'511.6
2018-Oct-15 10:03N 38°12' E 013°24'114.5
2018-Oct-15 10:01N 38°13' E 013°23'714.3
2018-Oct-15 09:30N 38°20' E 013°20'714.4
2018-Oct-15 09:03N 38°25' E 013°15'114.3
2018-Oct-15 09:00N 38°26' E 013°15'714.2
2018-Oct-15 08:31N 38°32' E 013°10'614.2
2018-Oct-15 08:03N 38°37' E 013°05'114.3
2018-Oct-15 08:01N 38°38' E 013°05'714.3
2018-Oct-15 07:30N 38°44' E 012°60'20014.8
2018-Oct-14 18:00N 41°31' E 010°38'918.0
2018-Oct-14 17:30N 41°39' E 010°31'817.7
2018-Oct-14 17:03N 41°45' E 010°25'117.6
2018-Oct-14 17:00N 41°46' E 010°25'917.7
2018-Oct-14 16:30N 41°53' E 010°18'817.8
2018-Oct-14 16:03N 42°00' E 010°12'117.8
2018-Oct-14 16:00N 42°01' E 010°12'917.7
2018-Oct-14 15:30N 42°08' E 010°05'817.5
2018-Oct-14 15:03N 42°15' E 009°59'117.5
2018-Oct-14 15:00N 42°16' E 009°59'1017.9
2018-Oct-14 14:27N 42°24' E 009°51'817.8
2018-Oct-14 14:00N 42°31' E 009°46'917.8
2018-Oct-14 13:30N 42°37' E 009°37'815.3
2018-Oct-14 12:57N 42°42' E 009°28'0 0.1
2018-Oct-14 05:56N 42°42' E 009°27'0 0.0
2018-Oct-14 05:19N 42°42' E 009°27'0 0.0
2018-Oct-14 04:44N 42°42' E 009°27'0 0.0
2018-Oct-14 04:30N 42°42' E 009°27'0 0.3
2018-Oct-14 04:03N 42°42' E 009°27'0 2.5
2018-Oct-14 04:01N 42°42' E 009°27'7 8.5
2018-Oct-14 03:12N 42°41' E 009°37'2 9.5
2018-Oct-14 03:02N 42°41' E 009°39'0 9.5
2018-Oct-14 03:00N 42°41' E 009°39'510.6
2018-Oct-14 02:30N 42°39' E 009°46'510.9
2018-Oct-14 02:01N 42°35' E 009°51'010.6
2018-Oct-14 02:00N 42°35' E 009°51'510.6
2018-Oct-14 01:30N 42°32' E 009°57'510.4
2018-Oct-14 01:03N 42°30' E 010°03'110.6
2018-Oct-14 01:00N 42°30' E 010°03'510.6
2018-Oct-14 00:30N 42°28' E 010°10'510.9
2018-Oct-14 00:02N 42°27' E 010°17'011.0
2018-Oct-14 00:00N 42°27' E 010°17'510.6
2018-Oct-13 23:30N 42°25' E 010°24'410.3
2018-Oct-13 23:03N 42°23' E 010°30'110.3
2018-Oct-13 22:58N 42°22' E 010°31'510.2
2018-Oct-13 22:30N 42°20' E 010°36'4 9.8
2018-Oct-13 22:03N 42°18' E 010°41'0 9.5
2018-Oct-13 22:00N 42°18' E 010°42'5 9.8
2018-Oct-13 21:30N 42°16' E 010°48'510.4
2018-Oct-13 21:01N 42°13' E 010°54'010.6
2018-Oct-13 20:59N 42°13' E 010°54'610.8
2018-Oct-13 20:25N 42°10' E 011°01'610.9
2018-Oct-13 19:52N 42°09' E 011°09'  

Dump ship's entire track history